UUEEUKKK

Guest
Details From UUEE - Moscou Sheremetyevo
To UKKK - Zhuliany Intl
Flight Number -
Tags Generated
Created
Modified
Stats Distance 417 nm / 773 km
Max Altitude 0 ft / 0 m
Waypoints 3
Social Downloads 1
Likes 0
Share VATSIM

Download

Looking for another format? Having issues loading an existing format? Contact us
Advertisement - Login to hide

Notes

Generated

Route

UUEE BB001 UKKK

ID Type Via Altitude Latitude Longitude Leg Dist Tot Dist Heading (true) Name
O UUEE APT - 0 ft / 0 m 55.96979˚ 37.38673˚ - 0 nm - -
BB001 FIX - 0 ft / 0 m 50.51534˚ 30.53133˚ 409 nm 409 nm 220° / 214° -
O UKKK APT - 0 ft / 0 m 50.40113˚ 30.43699˚ 7 nm 417 nm 208° / 208° -

Altitude Profile

Advertisement - Login to hide

Weather


0- 5 10 15 20 25 30 35+ Temperature / ° C

Clouds and Precipitation
Forecast for 2018-05-22 06:00 UTC. Updated 2 hours ago

Ground ~20,000 ft ~40,000 ft Winds

UUEE

Details ICAO UUEE (SVO)
Name Moscou Sheremetyevo
Region Russia
Timezone Europe/Moscow (UTC+3.0)
Stats Elevation 622 ft / 190 m (AMSL)
Location 55.972642° 37.414586°
Runways 2
Magnetic Variation 11.221° E

METAR

UUEE 220630Z 09006MPS CAVOK 16/06 Q1028 R06C/CLRD62 R06R/CLRD62 NOSIG

Decode

TAF

TAF UUEE 220200Z 2203/2303 08004MPS CAVOK TX20/2212Z TN07/2203Z BECMG 2204/2208 13006MPS BECMG 2218/2222 18004MPS

Decode

Departure Runways

ID Width Length Bearing (true) Bearing (mag) Surface Threshold Offset Overrun Length
07L 197 ft / 60 m 11,613 ft / 3,540 m 74.99° 63.77° Concrete 0 ft / 0 m 240 ft / 73 m
07R 197 ft / 60 m 12,127 ft / 3,696 m 75.03° 63.81° Concrete 0 ft / 0 m 235 ft / 72 m
25L 197 ft / 60 m 12,127 ft / 3,696 m 255.08° 243.86° Concrete 0 ft / 0 m 245 ft / 75 m
25R 197 ft / 60 m 11,613 ft / 3,540 m 255.04° 243.82° Concrete 0 ft / 0 m 245 ft / 75 m

UKKK

Details ICAO UKKK (IEV)
Name ZHULIANY INTL
Region Ukraine
Timezone Europe/Kiev (UTC+3.0)
Stats Elevation 586 ft / 179 m (AMSL)
Location 50.401694° 30.449697°
Runways 1
Magnetic Variation 7.648° E

METAR

UKKK 220630Z 27002MPS 9999 BKN021 15/10 Q1023 R26/70D NOSIG

Decode

TAF

TAF TAF UKKK 212303Z 2200/2224 02003MPS 6000 BKN010 TEMPO 2200/2206 0400 FG VV001 BECMG 2206/2208 19003G08MPS BKN025

Decode

Destination Runways

ID Width Length Bearing (true) Bearing (mag) Surface Threshold Offset Overrun Length
08 161 ft / 49 m 5,926 ft / 1,806 m 86.02° 78.37° Concrete 0 ft / 0 m 0 ft / 0 m
26 161 ft / 49 m 5,926 ft / 1,806 m 266.04° 258.39° Concrete 0 ft / 0 m 1,132 ft / 345 m

Approach Navaids

Runway Type Ident Frequency Range Bearing (true) Bearing (mag) Slope Elevation
08 Localiser IKI 111.70 MHz 18 nm / 33 km 86.26° 78.61° - 586 ft / 179 m (AMSL)
08 Glidescope IKI 111.70 MHz 10 nm / 19 km 86.03° 78.38° 3.00° 586 ft / 179 m (AMSL)
26 Localiser IKV 108.30 MHz 18 nm / 33 km 266.67° 259.02° - 586 ft / 179 m (AMSL)
26 Glidescope IKV 108.30 MHz 10 nm / 19 km 266.03° 258.38° 3.00° 586 ft / 179 m (AMSL)

Popular Alternatives